Airfield :
LOGIN :

Register | Disclaimer

   EN    FR    IT 

 










Legend :    VFR   Marginal VFR   IFR   Intensive IFR   Very Intensive IFR
Visi :
Ceiling :
>= 8 km
>= 3000ft
5 to 8 km
1000 to 3000 ft
1500m to 5 km
500 to 1000 ft
800 to 1500m
200 to 500 ft
< 800m
< 200 ft
Symbols :   Thunderstorms  Fog  Heavy snow  Heavy precipitations  Wind > 20 kt
SIGMETs :     Misc.  Thunderstorms  Icing  Turbulence  Mountain Waves  Volcanic Ashes






- Airport Elevation : 697 ft
- IATA code : PEG


LIRZ - San Edigio Perugia

CURRENT METAR :
  • 250750Z AUTO 13003KT 080V210 9999 FEW016/// 22/15 Q1013

EXPIRED METARs :
  • 250720Z AUTO VRB02KT 9999 NCD 21/16 Q1013
  • 250650Z AUTO VRB02KT 9999 FEW007/// 20/18 Q1013
  • 250620Z AUTO VRB02KT 9999 BKN005/// 19/19 Q1013
  • 250550Z AUTO VRB01KT 9999 BKN003/// 18/18 Q1013
  • 250520Z AUTO VRB01KT 8000 R01/0400N VV002 17/17 Q1013
  • 250450Z AUTO 22002KT 4200 BR VV002 17/17 Q1013
  • 250420Z AUTO 26002KT 7000 BKN060/// 17/17 Q1013
  • 250350Z AUTO 21003KT 9999 FEW002/// BKN053/// BKN079/// 17/17 Q1013
  • 250320Z AUTO 07002KT 9999 SCT052/// BKN068/// 18/18 Q1012

TAF AMD TAF LIRZ
Valid from the 25 at 06:00 until the 26 at 06:00 UTC


250700Z 2506/2606 VRB05KT 9999 SCT030
BECMG 2510/2512 20012KT
PROB40
TEMPO 2512/2518 4000 TSRA
BECMG 2517/2519 VRB05KT



MET'MAP, your aeronautical weather chart ! - Copyright ORBIFLY December 2007 - Disclaimer

ORBIFLY MET'MAP TEAM :

Programming & Development : Alexandra Zaïnal
Original concept : Baudouin d'Aumeries
Technical & hardware support : Manuel Goepfert
Assistance : Marc-Olivier Méhu




SOURCES & CREDITS :

   NOAA